createdAt,value
2022-11-18T00:01:33.947Z,92.52
2022-11-18T00:04:03.449Z,92.07
2022-11-18T00:06:33.157Z,90.89
2022-11-18T00:09:03.476Z,91.03
2022-11-18T00:11:51.419Z,90.88
2022-11-18T00:14:23.488Z,91.58
2022-11-18T00:16:57.285Z,91.75
2022-11-18T00:19:26.926Z,91.88
2022-11-18T00:21:54.830Z,91.86
2022-11-18T00:24:23.578Z,91.33
2022-11-18T00:26:53.042Z,91.54
2022-11-18T00:29:21.353Z,91.58
2022-11-18T00:31:49.823Z,91.80
2022-11-18T00:34:19.594Z,91.11
2022-11-18T00:36:48.881Z,91.30
2022-11-18T00:39:18.796Z,91.68
2022-11-18T00:42:05.313Z,91.49
2022-11-18T00:44:34.908Z,91.08
2022-11-18T00:47:02.708Z,90.78
2022-11-18T00:49:33.087Z,91.07
2022-11-18T00:52:01.157Z,91.30
2022-11-18T00:54:28.931Z,90.80
2022-11-18T00:56:56.721Z,91.14
2022-11-18T00:59:24.462Z,91.64
2022-11-18T01:01:53.692Z,91.20
2022-11-18T01:04:21.644Z,91.16
2022-11-18T01:06:49.540Z,90.32
2022-11-18T01:09:17.638Z,90.70
2022-11-18T01:12:03.201Z,90.75
2022-11-18T01:14:31.126Z,90.44
2022-11-18T01:17:00.344Z,91.01
2022-11-18T01:19:28.300Z,90.44
2022-11-18T01:21:56.855Z,90.78
2022-11-18T01:24:24.666Z,91.11
2022-11-18T01:26:52.406Z,90.50
2022-11-18T01:29:20.383Z,90.33
2022-11-18T01:32:09.244Z,90.25
2022-11-18T01:34:37.559Z,90.46
2022-11-18T01:37:05.321Z,90.92
2022-11-18T01:39:33.250Z,91.33
2022-11-18T01:42:01.135Z,90.82
2022-11-18T01:44:57.968Z,91.30
2022-11-18T01:47:29.187Z,90.70
2022-11-18T01:50:00.307Z,90.53
2022-11-18T01:52:28.933Z,90.05
2022-11-18T01:55:00.438Z,90.64
2022-11-18T01:57:30.725Z,90.47
2022-11-18T02:00:00.477Z,90.62
2022-11-18T02:02:28.660Z,89.90
2022-11-18T02:04:59.848Z,90.25
2022-11-18T02:07:28.195Z,90.80
2022-11-18T02:09:58.989Z,90.33
2022-11-18T02:12:26.810Z,90.53
2022-11-18T02:14:54.751Z,90.28
2022-11-18T02:17:34.803Z,90.58
2022-11-18T02:20:32.896Z,89.78
2022-11-18T02:23:28.885Z,90.09
2022-11-18T02:26:12.384Z,90.15
2022-11-18T02:28:53.784Z,89.79
2022-11-18T02:31:28.898Z,89.56
2022-11-18T02:34:04.240Z,90.38
2022-11-18T02:36:41.648Z,89.98
2022-11-18T02:39:13.463Z,89.82
2022-11-18T02:41:45.756Z,89.92
2022-11-18T02:44:16.535Z,89.47
2022-11-18T02:46:48.806Z,89.71
2022-11-18T02:49:21.346Z,90.17
2022-11-18T02:51:51.478Z,90.19
2022-11-18T02:54:21.995Z,90.71
2022-11-18T02:56:52.583Z,89.61
2022-11-18T02:59:22.459Z,89.92
2022-11-18T03:01:50.352Z,90.26
2022-11-18T03:04:19.201Z,89.50
2022-11-18T03:06:55.069Z,89.69
2022-11-18T03:09:28.204Z,89.92
2022-11-18T03:12:03.571Z,89.31
2022-11-18T03:14:41.425Z,90.45
2022-11-18T03:17:12.975Z,89.88
2022-11-18T03:19:56.111Z,90.31
2022-11-18T03:22:29.612Z,90.08
2022-11-18T03:25:05.838Z,89.45
2022-11-18T03:27:38.032Z,90.05
2022-11-18T03:30:13.341Z,89.97
2022-11-18T03:32:45.460Z,89.96
2022-11-18T03:35:18.788Z,89.50
2022-11-18T03:37:50.458Z,90.32
2022-11-18T03:40:21.544Z,90.05
2022-11-18T03:42:53.014Z,90.57
2022-11-18T03:45:25.256Z,90.10
2022-11-18T03:47:56.765Z,90.41
2022-11-18T03:50:28.696Z,90.03
2022-11-18T03:52:57.680Z,90.52
2022-11-18T03:55:30.545Z,90.28
2022-11-18T03:58:06.544Z,89.87
2022-11-18T04:00:40.532Z,90.15
2022-11-18T04:03:08.379Z,89.51
2022-11-18T04:05:39.255Z,89.44
2022-11-18T04:08:11.959Z,89.92
2022-11-18T04:10:44.002Z,89.50
2022-11-18T04:13:17.268Z,90.08
2022-11-18T04:15:46.471Z,89.73
2022-11-18T04:18:14.404Z,89.48
2022-11-18T04:20:42.228Z,88.64
2022-11-18T04:23:10.134Z,88.79
2022-11-18T04:25:38.152Z,89.14
2022-11-18T04:28:06.927Z,89.38
2022-11-18T04:30:35.205Z,89.42
2022-11-18T04:33:05.216Z,89.77
2022-11-18T04:35:33.340Z,90.28
2022-11-18T04:38:01.199Z,90.42
2022-11-18T04:40:29.147Z,90.35
2022-11-18T04:42:56.931Z,89.46
2022-11-18T04:45:24.724Z,89.84
2022-11-18T04:47:52.529Z,89.86
2022-11-18T04:50:21.928Z,90.25
2022-11-18T04:52:49.765Z,90.22
2022-11-18T04:55:17.760Z,90.77
2022-11-18T04:57:45.588Z,90.21
2022-11-18T05:00:13.917Z,90.03
2022-11-18T05:02:41.787Z,89.89
2022-11-18T05:05:09.688Z,90.08
2022-11-18T05:07:38.916Z,90.16
2022-11-18T05:10:07.456Z,90.01
2022-11-18T05:12:49.312Z,90.58
2022-11-18T05:15:17.678Z,90.58
2022-11-18T05:17:45.518Z,90.32
2022-11-18T05:20:14.094Z,89.66
2022-11-18T05:22:43.545Z,90.03
2022-11-18T05:25:11.387Z,90.24
2022-11-18T05:27:39.201Z,90.61
2022-11-18T05:30:07.904Z,90.45
2022-11-18T05:32:35.664Z,90.79
2022-11-18T05:35:03.522Z,90.73
2022-11-18T05:37:33.667Z,90.56
2022-11-18T05:40:02.904Z,90.48
2022-11-18T05:42:48.507Z,90.38
2022-11-18T05:45:19.328Z,89.65
2022-11-18T05:48:04.398Z,90.07
2022-11-18T05:50:33.591Z,90.83
2022-11-18T05:53:01.712Z,90.95
2022-11-18T05:55:36.477Z,90.47
2022-11-18T05:58:04.304Z,90.66
2022-11-18T06:00:33.515Z,90.80
2022-11-18T06:03:01.878Z,90.61
2022-11-18T06:05:32.647Z,90.69
2022-11-18T06:08:00.502Z,90.50
2022-11-18T06:10:33.377Z,90.88
2022-11-18T06:13:04.150Z,90.81
2022-11-18T06:15:36.438Z,91.72
2022-11-18T06:18:07.627Z,90.75
2022-11-18T06:20:38.074Z,91.15
2022-11-18T06:23:06.079Z,90.44
2022-11-18T06:25:38.004Z,90.28
2022-11-18T06:28:06.164Z,90.70
2022-11-18T06:30:33.932Z,90.25
2022-11-18T06:33:02.119Z,90.31
2022-11-18T06:35:29.937Z,90.38
2022-11-18T06:37:57.808Z,91.00
2022-11-18T06:40:27.366Z,90.39
2022-11-18T06:43:17.196Z,90.36
2022-11-18T06:46:09.060Z,90.22
2022-11-18T06:48:37.781Z,89.44
2022-11-18T06:51:06.096Z,89.86
2022-11-18T06:53:37.546Z,89.10
2022-11-18T06:56:05.978Z,89.72
2022-11-18T06:58:36.755Z,89.94
2022-11-18T07:01:13.615Z,89.62
2022-11-18T07:03:42.350Z,89.21
2022-11-18T07:06:11.736Z,89.55
2022-11-18T07:11:38.337Z,90.12
2022-11-18T07:14:08.189Z,90.21
2022-11-18T07:16:37.656Z,90.34
2022-11-18T07:19:10.717Z,90.02
2022-11-18T07:21:39.529Z,90.48
2022-11-18T07:24:09.251Z,90.09
2022-11-18T07:26:39.682Z,89.46
2022-11-18T07:29:09.977Z,90.15
2022-11-18T07:31:39.762Z,90.33
2022-11-18T07:34:08.600Z,90.45
2022-11-18T07:36:36.851Z,90.46
2022-11-18T07:39:09.160Z,89.99
2022-11-18T07:41:37.539Z,89.78
2022-11-18T07:44:07.511Z,89.50
2022-11-18T07:46:38.643Z,89.86
2022-11-18T07:49:09.971Z,89.78
2022-11-18T07:51:40.562Z,90.34
2022-11-18T07:54:10.447Z,90.01
2022-11-18T07:56:41.783Z,89.89
2022-11-18T07:59:13.096Z,89.58
2022-11-18T08:01:42.937Z,90.61
2022-11-18T08:04:14.005Z,89.61
2022-11-18T08:06:42.720Z,89.97
2022-11-18T08:09:11.135Z,90.31
2022-11-18T08:11:40.984Z,90.60
2022-11-18T08:14:10.039Z,90.13
2022-11-18T08:16:38.805Z,90.68
2022-11-18T08:19:08.289Z,90.75
2022-11-18T08:21:36.544Z,90.23
2022-11-18T08:24:04.693Z,89.49
2022-11-18T08:26:33.365Z,90.17
2022-11-18T08:29:01.861Z,90.72
2022-11-18T08:31:31.590Z,90.66
2022-11-18T08:34:00.916Z,90.38
2022-11-18T08:36:31.419Z,89.98
2022-11-18T08:39:00.402Z,90.50
2022-11-18T08:41:32.358Z,90.17
2022-11-18T08:44:00.783Z,90.17
2022-11-18T08:46:28.689Z,89.87
2022-11-18T08:48:56.790Z,89.24
2022-11-18T08:51:25.269Z,89.99
2022-11-18T08:53:54.564Z,89.83
2022-11-18T08:56:24.086Z,90.64
2022-11-18T08:58:52.452Z,90.58
2022-11-18T09:01:20.472Z,89.16
2022-11-18T09:03:48.957Z,89.80
2022-11-18T09:06:19.482Z,89.92
2022-11-18T09:08:47.940Z,90.59
2022-11-18T09:11:19.305Z,89.41
2022-11-18T09:14:26.051Z,90.10
2022-11-18T09:16:36.281Z,90.72
2022-11-18T09:19:24.747Z,89.93
2022-11-18T09:21:52.842Z,89.86
2022-11-18T09:24:21.324Z,90.64
2022-11-18T09:26:50.966Z,88.81
2022-11-18T09:29:18.878Z,90.04
2022-11-18T09:31:46.985Z,90.04
2022-11-18T09:34:14.810Z,90.51
2022-11-18T09:36:42.806Z,90.23
2022-11-18T09:39:10.749Z,90.16
2022-11-18T09:41:46.233Z,89.62
2022-11-18T09:44:39.758Z,89.99
2022-11-18T09:47:22.625Z,89.37
2022-11-18T09:49:53.646Z,88.77
2022-11-18T09:52:30.164Z,89.35
2022-11-18T09:55:01.387Z,89.54
2022-11-18T09:57:39.719Z,89.26
2022-11-18T10:00:16.527Z,89.49
2022-11-18T10:02:57.072Z,88.54
2022-11-18T10:05:27.448Z,88.67
2022-11-18T10:08:15.503Z,87.71
2022-11-18T10:10:56.648Z,87.85
2022-11-18T10:13:39.825Z,88.35
2022-11-18T10:16:23.936Z,88.17
2022-11-18T10:19:00.940Z,87.78
2022-11-18T10:21:43.440Z,88.12
2022-11-18T10:24:16.966Z,87.88
2022-11-18T10:26:45.266Z,87.13
2022-11-18T10:29:13.512Z,87.12
2022-11-18T10:32:03.789Z,87.30
2022-11-18T10:34:33.178Z,85.63
2022-11-18T10:37:03.445Z,86.59
2022-11-18T10:39:31.612Z,86.29
2022-11-18T10:42:03.977Z,86.74
2022-11-18T10:44:34.768Z,85.26
2022-11-18T10:47:34.713Z,86.63
2022-11-18T10:50:24.169Z,85.14
2022-11-18T10:52:54.288Z,85.88
2022-11-18T10:55:24.886Z,86.51
2022-11-18T10:57:57.087Z,86.09
2022-11-18T11:00:50.357Z,84.90
2022-11-18T11:03:41.943Z,85.05
2022-11-18T11:06:43.178Z,86.55
2022-11-18T11:09:24.400Z,84.69
2022-11-18T11:11:58.975Z,85.08
2022-11-18T11:14:29.905Z,84.96
2022-11-18T11:17:03.583Z,84.81
2022-11-18T11:19:40.791Z,85.17
2022-11-18T11:22:13.388Z,82.54
2022-11-18T11:24:41.938Z,83.89
2022-11-18T11:30:22.007Z,83.23
2022-11-18T11:33:23.845Z,83.04
2022-11-18T11:36:04.871Z,83.10
2022-11-18T11:38:43.429Z,81.92
2022-11-18T11:41:21.236Z,82.10
2022-11-18T11:44:07.685Z,82.69
2022-11-18T11:46:44.096Z,82.40
2022-11-18T11:49:19.070Z,82.71
2022-11-18T11:51:55.120Z,82.54
2022-11-18T11:54:39.144Z,82.74
2022-11-18T11:57:16.867Z,81.41
2022-11-18T11:59:54.319Z,82.03
2022-11-18T12:02:48.883Z,80.71
2022-11-18T12:05:23.531Z,81.11
2022-11-18T12:07:56.642Z,80.11
2022-11-18T12:10:36.924Z,82.25
2022-11-18T12:13:21.676Z,83.28
2022-11-18T12:16:00.097Z,82.56
2022-11-18T12:18:34.764Z,80.86
2022-11-18T12:21:02.592Z,81.71
2022-11-18T12:23:35.275Z,81.88
2022-11-18T12:26:06.073Z,80.68
2022-11-18T12:28:39.921Z,78.19
2022-11-18T12:31:36.256Z,79.96
2022-11-18T12:34:20.955Z,79.46
2022-11-18T12:36:48.894Z,80.12
2022-11-18T12:39:53.408Z,79.06
2022-11-18T12:43:00.984Z,78.89
2022-11-18T12:46:01.736Z,77.84
2022-11-18T12:48:35.847Z,78.52
2022-11-18T12:51:30.124Z,78.17
2022-11-18T12:53:58.612Z,78.97
2022-11-18T12:56:28.980Z,79.58
2022-11-18T12:59:00.265Z,79.07
2022-11-18T13:01:30.545Z,78.92
2022-11-18T13:04:08.493Z,80.22
2022-11-18T13:06:38.998Z,80.13
2022-11-18T13:09:15.404Z,80.06
2022-11-18T13:11:48.479Z,81.02
2022-11-18T13:14:41.140Z,81.72
2022-11-18T13:17:45.552Z,75.69
2022-11-18T13:20:27.341Z,74.45
2022-11-18T13:23:15.105Z,74.94
2022-11-18T13:25:45.126Z,74.97
2022-11-18T13:28:24.081Z,76.06
2022-11-18T13:30:58.068Z,75.73
2022-11-18T13:33:26.699Z,76.70
2022-11-18T13:35:54.585Z,76.24
2022-11-18T13:38:28.463Z,76.50
2022-11-18T13:41:08.102Z,76.70
2022-11-18T13:43:36.239Z,76.50
2022-11-18T13:46:10.484Z,76.07
2022-11-18T13:48:46.335Z,76.30
2022-11-18T13:51:14.804Z,76.75
2022-11-18T13:53:44.480Z,76.62
2022-11-18T13:56:20.265Z,75.65
2022-11-18T13:59:16.473Z,75.25
2022-11-18T14:01:47.062Z,73.92
2022-11-18T14:04:21.685Z,73.62
2022-11-18T14:06:49.998Z,72.96
2022-11-18T14:09:25.582Z,73.98
2022-11-18T14:12:01.797Z,72.61
2022-11-18T14:14:32.022Z,70.53
2022-11-18T14:17:17.518Z,71.90
2022-11-18T14:19:46.077Z,72.86
2022-11-18T14:22:17.139Z,72.48
2022-11-18T14:24:45.461Z,74.20
2022-11-18T14:27:48.341Z,74.38
2022-11-18T14:30:36.889Z,73.03
2022-11-18T14:33:22.458Z,72.71
2022-11-18T14:35:53.521Z,72.43
2022-11-18T14:41:16.090Z,73.07
2022-11-18T14:43:46.048Z,74.48
2022-11-18T14:46:19.114Z,75.14
2022-11-18T14:48:48.922Z,75.32
2022-11-18T14:51:18.167Z,74.04
2022-11-18T14:54:01.901Z,75.92
2022-11-18T14:56:36.376Z,77.79
2022-11-18T14:59:04.907Z,78.61
2022-11-18T15:01:33.048Z,80.55
2022-11-18T15:04:02.515Z,81.54
2022-11-18T15:06:30.349Z,82.86
2022-11-18T15:08:58.157Z,83.14
2022-11-18T15:11:25.987Z,83.53
2022-11-18T15:13:54.177Z,84.02
2022-11-18T15:16:24.377Z,84.32
2022-11-18T15:18:54.057Z,83.74
2022-11-18T15:21:24.503Z,84.21
2022-11-18T15:23:52.930Z,84.55
2022-11-18T15:26:22.843Z,84.88
2022-11-18T15:28:54.982Z,87.14
2022-11-18T15:31:23.770Z,85.92
2022-11-18T15:33:51.800Z,85.30
2022-11-18T15:36:21.575Z,85.38
2022-11-18T15:38:52.245Z,85.61
2022-11-18T15:41:23.476Z,86.44
2022-11-18T15:43:52.033Z,86.70
2022-11-18T15:46:22.521Z,87.46
2022-11-18T15:48:53.730Z,87.34
2022-11-18T15:51:23.715Z,86.67
2022-11-18T15:53:54.381Z,87.87
2022-11-18T15:56:31.253Z,87.65
2022-11-18T15:59:01.221Z,87.96
2022-11-18T16:01:31.789Z,88.13
2022-11-18T16:04:00.484Z,89.51
2022-11-18T16:06:28.884Z,89.22
2022-11-18T16:09:00.447Z,88.95
2022-11-18T16:11:47.561Z,88.35
2022-11-18T16:14:18.035Z,87.96
2022-11-18T16:16:48.048Z,87.73
2022-11-18T16:19:18.779Z,87.51
2022-11-18T16:21:48.860Z,88.30
2022-11-18T16:24:23.139Z,87.92
2022-11-18T16:26:52.619Z,88.18
2022-11-18T16:29:21.966Z,88.18
2022-11-18T16:31:52.896Z,88.70
2022-11-18T16:34:23.113Z,89.01
2022-11-18T16:36:53.320Z,89.74
2022-11-18T16:39:25.147Z,88.97
2022-11-18T16:41:55.108Z,88.87
2022-11-18T16:44:23.504Z,88.71
2022-11-18T16:46:53.264Z,89.01
2022-11-18T16:49:26.942Z,89.09
2022-11-18T16:51:56.992Z,88.65
2022-11-18T16:54:29.350Z,89.24
2022-11-18T16:56:59.272Z,89.67
2022-11-18T16:59:29.121Z,89.67
2022-11-18T17:01:59.088Z,89.52
2022-11-18T17:04:28.976Z,89.35
2022-11-18T17:07:00.979Z,90.23
2022-11-18T17:09:32.002Z,89.45
2022-11-18T17:12:04.151Z,89.55
2022-11-18T17:14:32.403Z,88.93
2022-11-18T17:17:00.447Z,89.77
2022-11-18T17:19:28.443Z,89.66
2022-11-18T17:21:56.735Z,89.59
2022-11-18T17:24:25.198Z,89.31
2022-11-18T17:26:55.458Z,88.65
2022-11-18T17:29:23.513Z,87.63
2022-11-18T17:31:51.510Z,88.22
2022-11-18T17:34:19.987Z,87.65
2022-11-18T17:36:48.202Z,86.86
2022-11-18T17:39:17.484Z,87.33
2022-11-18T17:41:59.651Z,87.40
2022-11-18T17:44:29.747Z,86.71
2022-11-18T17:46:57.879Z,86.25
2022-11-18T17:49:25.881Z,84.64
2022-11-18T17:51:55.286Z,84.63
2022-11-18T17:54:23.569Z,83.67
2022-11-18T17:56:52.926Z,83.35
2022-11-18T17:59:23.018Z,83.02
2022-11-18T18:01:58.663Z,83.50
2022-11-18T18:04:27.731Z,83.45
2022-11-18T18:06:55.868Z,83.33
2022-11-18T18:09:29.984Z,83.24
2022-11-18T18:12:00.003Z,82.75
2022-11-18T18:14:27.002Z,82.53
2022-11-18T18:16:56.361Z,82.57
2022-11-18T18:19:24.781Z,82.21
2022-11-18T18:21:58.932Z,81.70
2022-11-18T18:24:27.228Z,81.97
2022-11-18T18:26:55.354Z,81.57
2022-11-18T18:29:25.209Z,81.78
2022-11-18T18:31:53.364Z,82.04
2022-11-18T18:34:22.769Z,82.58
2022-11-18T18:36:50.965Z,83.09
2022-11-18T18:39:19.003Z,83.28
2022-11-18T18:41:49.133Z,83.96
2022-11-18T18:44:18.899Z,83.90
2022-11-18T18:46:46.125Z,84.13
2022-11-18T18:49:15.681Z,83.87
2022-11-18T18:51:48.904Z,84.29
2022-11-18T18:54:20.322Z,84.35
2022-11-18T18:56:48.483Z,84.37
2022-11-18T18:59:16.485Z,83.77
2022-11-18T19:01:44.714Z,85.33
2022-11-18T19:04:14.278Z,85.35
2022-11-18T19:07:01.107Z,85.29
2022-11-18T19:09:30.642Z,84.63
2022-11-18T19:12:15.989Z,84.35
2022-11-18T19:14:43.950Z,83.55
2022-11-18T19:17:13.001Z,82.53
2022-11-18T19:19:59.574Z,82.57
2022-11-18T19:22:30.155Z,82.63
2022-11-18T19:24:59.917Z,83.28
2022-11-18T19:27:28.927Z,83.29
2022-11-18T19:29:57.019Z,83.72
2022-11-18T19:32:25.118Z,83.39
2022-11-18T19:34:53.220Z,83.52
2022-11-18T19:37:21.231Z,83.18
2022-11-18T19:39:49.160Z,83.53
2022-11-18T19:42:18.657Z,82.72
2022-11-18T19:44:46.598Z,83.67
2022-11-18T19:47:14.571Z,84.26
2022-11-18T19:49:42.640Z,84.27
2022-11-18T19:52:10.632Z,83.54
2022-11-18T19:54:38.544Z,82.96
2022-11-18T19:57:06.506Z,83.31
2022-11-18T19:59:36.031Z,83.94
2022-11-18T20:02:04.200Z,83.94
2022-11-18T20:04:32.104Z,83.54
2022-11-18T20:07:01.092Z,84.14
2022-11-18T20:09:29.115Z,83.78
2022-11-18T20:11:57.191Z,84.04
2022-11-18T20:14:25.423Z,83.07
2022-11-18T20:16:54.894Z,83.67
2022-11-18T20:19:23.438Z,83.26
2022-11-18T20:21:53.023Z,83.50
2022-11-18T20:24:21.508Z,83.58
2022-11-18T20:26:50.336Z,83.03
2022-11-18T20:29:18.850Z,83.89
2022-11-18T20:31:47.123Z,83.97
2022-11-18T20:34:16.329Z,83.32
2022-11-18T20:36:44.582Z,83.95
2022-11-18T20:39:15.316Z,83.97
2022-11-18T20:42:04.261Z,84.18
2022-11-18T20:44:32.248Z,84.36
2022-11-18T20:47:01.371Z,84.38
2022-11-18T20:49:31.881Z,84.71
2022-11-18T20:51:59.695Z,84.48
2022-11-18T20:54:28.333Z,84.14
2022-11-18T20:56:56.465Z,85.02
2022-11-18T20:59:24.679Z,85.04
2022-11-18T21:01:53.196Z,84.72
2022-11-18T21:04:21.122Z,84.95
2022-11-18T21:06:52.626Z,84.27
2022-11-18T21:09:21.434Z,85.31
2022-11-18T21:11:50.493Z,84.66
2022-11-18T21:14:23.332Z,84.44
2022-11-18T21:16:53.257Z,84.86
2022-11-18T21:19:21.600Z,85.05
2022-11-18T21:21:52.582Z,85.14
2022-11-18T21:24:23.436Z,86.14
2022-11-18T21:26:54.696Z,85.75
2022-11-18T21:29:23.762Z,86.04
2022-11-18T21:31:52.471Z,86.05
2022-11-18T21:34:21.604Z,85.55
2022-11-18T21:36:55.144Z,85.44
2022-11-18T21:39:24.496Z,85.13
2022-11-18T21:41:56.798Z,84.67
2022-11-18T21:44:28.345Z,83.43
2022-11-18T21:46:57.864Z,83.66
2022-11-18T21:49:26.080Z,83.79
2022-11-18T21:51:56.914Z,83.57
2022-11-18T21:54:25.153Z,83.38
2022-11-18T21:56:54.155Z,84.45
2022-11-18T21:59:23.676Z,85.07
2022-11-18T22:01:52.266Z,86.28
2022-11-18T22:04:34.476Z,85.87
2022-11-18T22:07:05.256Z,86.38
2022-11-18T22:09:36.688Z,86.37
2022-11-18T22:12:07.839Z,86.57
2022-11-18T22:14:36.363Z,86.63
2022-11-18T22:17:05.806Z,86.60
2022-11-18T22:19:33.740Z,86.20
2022-11-18T22:22:03.440Z,87.10
2022-11-18T22:24:31.823Z,87.13
2022-11-18T22:26:59.834Z,86.82
2022-11-18T22:29:28.177Z,86.45
2022-11-18T22:31:57.292Z,86.64
2022-11-18T22:34:25.396Z,87.03
2022-11-18T22:36:53.300Z,87.10
2022-11-18T22:39:22.912Z,87.08
2022-11-18T22:42:08.297Z,86.67
2022-11-18T22:44:36.312Z,85.85
2022-11-18T22:47:04.729Z,86.06
2022-11-18T22:49:32.875Z,86.18
2022-11-18T22:52:02.009Z,85.89
2022-11-18T22:54:38.935Z,85.22
2022-11-18T22:57:07.903Z,85.80
2022-11-18T22:59:36.407Z,86.54
2022-11-18T23:02:05.042Z,86.25
2022-11-18T23:04:33.015Z,86.76
2022-11-18T23:07:00.840Z,85.92
2022-11-18T23:09:28.853Z,87.05
2022-11-18T23:12:15.367Z,87.02
2022-11-18T23:14:43.233Z,87.12
2022-11-18T23:17:11.182Z,87.63
2022-11-18T23:19:41.954Z,87.59
2022-11-18T23:22:09.902Z,87.80
2022-11-18T23:24:37.884Z,87.64
2022-11-18T23:27:07.288Z,87.77
2022-11-18T23:29:35.331Z,87.86
2022-11-18T23:32:03.170Z,87.89
2022-11-18T23:34:31.107Z,87.84
2022-11-18T23:36:58.947Z,88.15
2022-11-18T23:39:27.515Z,87.60
2022-11-18T23:41:55.350Z,87.99
2022-11-18T23:44:44.524Z,87.36
2022-11-18T23:47:12.415Z,87.66
2022-11-18T23:49:40.161Z,87.97
2022-11-18T23:52:07.987Z,87.70
2022-11-18T23:54:35.739Z,86.46
2022-11-18T23:57:05.592Z,86.37
2022-11-18T23:59:35.036Z,86.79
